Time;durP1;ratioP1;P1;durP2;ratioP2;P2;SDS_P1;SDS_P2;PMS_P1;PMS_P2;Temp;Humidity;BMP_temperature;BMP_pressure;BME280_temperature;BME280_humidity;BME280_pressure;Samples;Min_cycle;Max_cycle;Signal;HPM_P1;HPM_P2
2021/06/11 00:01:47;;;;;;;6.70;6.10;;;;;;;22.10;64.21;99203.89;1774879;79;21057;-65
2021/06/11 00:04:14;;;;;;;6.55;6.05;;;;;;;22.07;64.27;99206.55;1782150;79;21019;-64
2021/06/11 00:06:40;;;;;;;6.62;5.95;;;;;;;22.05;64.33;99202.48;1772604;79;21504;-64
2021/06/11 00:09:09;;;;;;;7.12;6.42;;;;;;;22.02;64.40;99204.33;1775683;79;21022;-64
2021/06/11 00:11:36;;;;;;;6.28;5.78;;;;;;;21.98;64.50;99204.86;1776738;79;21134;-63
2021/06/11 00:14:02;;;;;;;6.40;5.90;;;;;;;21.96;64.60;99206.17;1783008;79;20990;-65
2021/06/11 00:16:29;;;;;;;6.62;6.10;;;;;;;21.95;64.68;99205.91;1771442;79;21049;-64
2021/06/11 00:18:55;;;;;;;7.03;6.42;;;;;;;21.93;64.74;99206.16;1778371;79;21011;-65
2021/06/11 00:21:22;;;;;;;6.95;6.35;;;;;;;21.92;64.80;99209.95;1781001;79;20997;-64
2021/06/11 00:23:48;;;;;;;6.40;5.80;;;;;;;21.90;64.85;99215.31;1783757;79;21827;-66
2021/06/11 00:26:14;;;;;;;6.22;5.75;;;;;;;21.87;64.94;99210.44;1784776;79;21033;-65
2021/06/11 00:28:42;;;;;;;6.85;5.97;;;;;;;21.88;65.03;99212.05;1764969;79;21544;-65
2021/06/11 00:31:09;;;;;;;5.97;5.58;;;;;;;21.94;64.92;99217.27;1784708;79;21037;-63
2021/06/11 00:33:37;;;;;;;6.12;5.53;;;;;;;21.94;64.87;99211.02;1771907;79;21068;-65
2021/06/11 00:36:04;;;;;;;6.12;5.55;;;;;;;21.90;64.92;99214.77;1770201;78;21595;-64
2021/06/11 00:38:32;;;;;;;6.55;5.45;;;;;;;21.90;65.01;99215.31;1777251;79;21078;-64
2021/06/11 00:40:58;;;;;;;6.47;5.97;;;;;;;21.87;65.06;99213.14;1773543;80;21062;-66
2021/06/11 00:43:25;;;;;;;6.83;6.12;;;;;;;21.84;65.17;99219.84;1798277;78;21568;-64
2021/06/11 00:45:52;;;;;;;6.55;5.95;;;;;;;21.83;65.21;99222.80;1805233;78;21123;-64
2021/06/11 00:48:18;;;;;;;7.00;6.42;;;;;;;21.80;65.28;99221.43;1774489;80;21108;-63
2021/06/11 00:50:46;;;;;;;5.90;5.40;;;;;;;21.78;65.33;99219.52;1774799;80;20994;-64
2021/06/11 00:53:12;;;;;;;6.05;5.55;;;;;;;21.76;65.38;99217.06;1809781;78;21084;-63
2021/06/11 00:55:44;;;;;;;6.30;5.67;;;;;;;21.73;65.44;99210.84;1789040;78;21014;-65
2021/06/11 00:58:11;;;;;;;6.28;5.62;;;;;;;21.72;65.47;99207.84;1768490;80;21061;-63
2021/06/11 01:00:38;;;;;;;6.08;5.58;;;;;;;21.71;65.54;99211.62;1775280;80;21516;-64
2021/06/11 01:03:05;;;;;;;6.55;5.87;;;;;;;21.70;65.56;99213.22;1806949;78;21005;-65
2021/06/11 01:05:33;;;;;;;6.12;5.60;;;;;;;21.67;65.60;99218.61;1802937;78;21069;-64
2021/06/11 01:07:59;;;;;;;6.10;5.60;;;;;;;21.66;65.68;99221.02;1788467;80;21066;-64
2021/06/11 01:10:26;;;;;;;6.35;5.85;;;;;;;21.66;65.75;99216.16;1763633;80;21015;-65
2021/06/11 01:12:53;;;;;;;6.00;5.50;;;;;;;21.65;65.77;99219.91;1806834;78;21077;-65
2021/06/11 01:15:21;;;;;;;7.25;5.22;;;;;;;21.64;65.86;99218.30;1788491;78;21536;-64
2021/06/11 01:17:49;;;;;;;5.47;5.08;;;;;;;21.71;65.67;99219.73;1730978;80;21025;-64
2021/06/11 01:20:18;;;;;;;5.80;5.25;;;;;;;21.72;65.64;99215.95;1782978;79;21069;-64
2021/06/11 01:22:55;;;;;;;5.62;5.17;;;;;;;21.70;65.70;99215.93;1792678;78;21001;-65
2021/06/11 01:25:44;;;;;;;6.28;5.30;;;;;;;21.67;65.77;99217.27;1812639;78;21120;-64
2021/06/11 01:28:12;;;;;;;5.65;5.05;;;;;;;21.64;65.84;99217.76;1777204;80;21045;-63
2021/06/11 01:30:38;;;;;;;6.22;5.30;;;;;;;21.61;65.91;99223.66;1796078;78;21041;-64
2021/06/11 01:33:06;;;;;;;6.15;5.55;;;;;;;21.59;65.99;99224.45;1816734;78;21006;-64
2021/06/11 01:35:50;;;;;;;6.22;5.58;;;;;;;21.58;66.04;99226.88;1809796;78;21541;-63
2021/06/11 01:38:27;;;;;;;5.95;5.45;;;;;;;21.53;66.03;99226.27;1808561;78;21778;-65
2021/06/11 01:40:54;;;;;;;6.33;5.83;;;;;;;21.53;66.10;99224.11;1779384;78;21513;-65
2021/06/11 01:43:22;;;;;;;6.25;5.65;;;;;;;21.52;66.12;99222.50;1812943;78;21021;-65
2021/06/11 01:45:49;;;;;;;6.45;5.85;;;;;;;21.51;66.14;99230.30;1809987;78;21067;-64
2021/06/11 01:48:16;;;;;;;6.03;5.53;;;;;;;21.50;66.17;99224.09;1814517;78;21065;-64
2021/06/11 01:50:43;;;;;;;8.40;6.60;;;;;;;21.49;66.17;99227.84;1781311;79;21831;-65
2021/06/11 01:53:12;;;;;;;6.00;5.50;;;;;;;21.48;66.21;99227.58;1784989;80;21098;-64
2021/06/11 01:55:39;;;;;;;5.60;4.83;;;;;;;21.48;66.32;99229.45;1771328;78;21076;-63
2021/06/11 01:58:06;;;;;;;6.17;5.58;;;;;;;21.51;66.36;99224.90;1783498;79;21599;-62
2021/06/11 02:00:35;;;;;;;5.67;4.65;;;;;;;21.59;66.18;99226.64;1774019;80;21111;-65
2021/06/11 02:03:01;;;;;;;5.37;4.97;;;;;;;21.60;66.16;99235.01;1781474;79;21127;-63
2021/06/11 02:05:29;;;;;;;5.65;5.20;;;;;;;21.59;66.22;99234.74;1802682;79;21057;-63
2021/06/11 02:07:55;;;;;;;5.65;5.15;;;;;;;21.58;66.24;99232.29;1772803;80;21520;-64
2021/06/11 02:10:22;;;;;;;5.60;5.10;;;;;;;21.57;66.28;99227.39;1798869;79;20983;-64
2021/06/11 02:12:48;;;;;;;6.58;5.40;;;;;;;21.57;66.34;99231.45;1804076;79;21042;-64
2021/06/11 02:15:15;;;;;;;6.60;5.87;;;;;;;21.57;66.38;99238.20;1772071;80;21986;-63
2021/06/11 02:17:45;;;;;;;5.22;4.83;;;;;;;21.57;66.38;99238.20;1764324;80;21119;-62
2021/06/11 02:20:16;;;;;;;5.87;5.20;;;;;;;21.58;66.40;99237.70;1775504;80;21052;-63
2021/06/11 02:22:44;;;;;;;5.85;5.35;;;;;;;21.57;66.43;99240.91;1764485;80;21094;-63
2021/06/11 02:25:13;;;;;;;5.95;5.50;;;;;;;21.57;66.44;99243.61;1769883;80;21310;-63
2021/06/11 02:27:39;;;;;;;5.97;5.47;;;;;;;21.58;66.39;99240.39;1763250;80;21113;-66
2021/06/11 02:30:10;;;;;;;6.33;5.83;;;;;;;21.58;66.31;99243.09;1765492;80;21034;-64
2021/06/11 02:32:37;;;;;;;6.00;5.50;;;;;;;21.57;66.26;99239.56;1766929;80;21076;-63
2021/06/11 02:35:06;;;;;;;6.17;5.67;;;;;;;21.57;66.17;99240.91;1766601;80;21533;-64
2021/06/11 02:37:32;;;;;;;6.12;5.53;;;;;;;21.56;66.14;99242.53;1765902;80;21088;-65
2021/06/11 02:40:00;;;;;;;7.15;6.53;;;;;;;21.55;66.16;99243.59;1764366;80;21118;-65
2021/06/11 02:42:28;;;;;;;6.35;5.80;;;;;;;21.55;66.19;99247.10;1766593;80;21092;-64
2021/06/11 02:44:57;;;;;;;5.58;5.17;;;;;;;21.56;66.17;99242.53;1766798;80;21645;-64
2021/06/11 02:47:55;;;;;;;6.15;5.55;;;;;;;21.65;65.98;99243.70;1779425;79;21549;-64
2021/06/11 02:50:25;;;;;;;6.95;5.95;;;;;;;21.68;65.85;99245.10;1774003;79;21088;-63
2021/06/11 02:52:56;;;;;;;9.00;6.25;;;;;;;21.67;65.85;99248.34;1780810;79;21146;-64
2021/06/11 02:55:22;;;;;;;6.22;5.62;;;;;;;21.64;65.83;99247.48;1764403;80;21517;-63
2021/06/11 02:58:05;;;;;;;6.35;5.85;;;;;;;21.63;65.88;99251.25;1769822;80;21009;-64
2021/06/11 03:00:32;;;;;;;;;;;;;;;21.62;65.96;99253.69;1780880;79;21225;-64
2021/06/11 03:03:13;;;;;;;6.90;6.20;;;;;;;21.61;66.01;99250.69;1783026;79;20187;-64
2021/06/11 03:05:39;;;;;;;6.65;6.05;;;;;;;21.53;66.23;99259.24;1762287;79;21138;-63
2021/06/11 03:08:11;;;;;;;7.03;6.42;;;;;;;21.52;66.20;99260.33;1777311;79;22093;-63
2021/06/11 03:10:36;;;;;;;7.55;5.87;;;;;;;21.52;66.21;99259.78;1778658;79;21588;-64
2021/06/11 03:13:03;;;;;;;6.25;5.75;;;;;;;21.53;66.20;99253.84;1777813;79;21074;-65
2021/06/11 03:15:33;;;;;;;6.60;6.10;;;;;;;21.52;66.22;99255.73;1778521;79;21099;-65
2021/06/11 03:18:02;;;;;;;6.95;6.00;;;;;;;21.52;66.19;99258.44;1787610;79;21750;-65
2021/06/11 03:20:35;;;;;;;6.95;6.25;;;;;;;21.55;66.15;99259.27;1779042;79;21477;-64
2021/06/11 03:23:06;;;;;;;6.55;5.95;;;;;;;21.53;66.15;99253.84;1785670;79;21047;-63
2021/06/11 03:25:46;;;;;;;6.53;6.03;;;;;;;21.53;66.14;99261.41;1760877;79;21521;-64
2021/06/11 03:28:18;;;;;;;6.45;5.92;;;;;;;21.52;66.17;99257.08;1781185;79;21520;-65
2021/06/11 03:30:55;;;;;;;6.47;5.87;;;;;;;21.51;66.22;99260.84;1786644;79;21073;-65
2021/06/11 03:33:34;;;;;;;5.62;5.20;;;;;;;21.51;66.28;99261.38;1781040;79;21052;-64
2021/06/11 03:36:12;;;;;;;7.12;6.50;;;;;;;21.55;66.23;99264.67;1782316;79;21075;-64
2021/06/11 03:38:38;;;;;;;6.70;6.10;;;;;;;21.65;65.93;99260.46;1774168;79;21021;-66
2021/06/11 03:41:05;;;;;;;9.33;6.25;;;;;;;21.66;65.86;99264.27;1772602;79;21565;-65
2021/06/11 03:43:32;;;;;;;7.90;5.80;;;;;;;21.64;65.86;99258.30;1795348;79;21834;-63
2021/06/11 03:45:58;;;;;;;5.97;5.47;;;;;;;21.67;65.82;99259.67;1790027;79;20993;-63
2021/06/11 03:48:29;;;;;;;8.28;5.60;;;;;;;21.68;65.78;99263.48;1780897;79;21040;-63
2021/06/11 03:50:56;;;;;;;5.95;5.42;;;;;;;21.71;65.72;99260.80;1793206;79;21001;-64
2021/06/11 03:53:24;;;;;;;6.72;5.87;;;;;;;21.72;65.67;99263.25;1782791;79;21040;-64
2021/06/11 03:55:55;;;;;;;6.83;5.60;;;;;;;21.73;65.60;99269.47;1794667;79;21144;-65
2021/06/11 03:58:43;;;;;;;6.17;5.67;;;;;;;21.73;65.56;99271.66;1786745;79;21053;-64
2021/06/11 04:01:14;;;;;;;5.97;5.47;;;;;;;21.72;65.57;99272.72;1775510;79;21033;-65
2021/06/11 04:03:41;;;;;;;17.27;6.62;;;;;;;21.71;65.62;99271.09;1786913;79;21606;-66
2021/06/11 04:06:12;;;;;;;7.35;5.40;;;;;;;21.72;65.61;99269.20;1790539;79;21075;-65
2021/06/11 04:08:38;;;;;;;6.47;5.75;;;;;;;21.72;65.62;99271.91;1787513;79;21154;-65
2021/06/11 04:11:06;;;;;;;7.75;6.55;;;;;;;21.73;65.61;99272.17;1785105;79;21029;-65
2021/06/11 04:13:51;;;;;;;5.90;5.42;;;;;;;21.75;65.58;99275.44;1774856;78;21072;-64
2021/06/11 04:16:25;;;;;;;6.37;5.65;;;;;;;21.76;65.58;99275.73;1769313;79;21006;-63
2021/06/11 04:18:55;;;;;;;5.92;5.17;;;;;;;21.78;65.58;99276.30;1780475;79;21132;-65
2021/06/11 04:21:24;;;;;;;6.08;5.58;;;;;;;21.78;65.54;99275.75;1773145;79;21095;-65
2021/06/11 04:23:58;;;;;;;5.58;5.17;;;;;;;21.80;65.51;99277.66;1780375;79;21150;-63
2021/06/11 04:26:26;;;;;;;6.17;5.58;;;;;;;21.84;65.46;99274.47;1766699;79;21026;-63
2021/06/11 04:28:55;;;;;;;6.17;5.42;;;;;;;21.87;65.39;99281.55;1791407;79;21091;-64
2021/06/11 04:31:21;;;;;;;6.00;5.47;;;;;;;21.90;65.37;99281.56;1788552;80;21076;-64
2021/06/11 04:33:48;;;;;;;9.18;5.72;;;;;;;21.92;65.32;99282.96;1785002;78;21639;-65
2021/06/11 04:36:14;;;;;;;5.87;5.47;;;;;;;21.95;65.24;99278.92;1815164;78;20999;-67
2021/06/11 04:39:03;;;;;;;6.22;5.72;;;;;;;21.96;65.22;99277.32;1782037;80;21041;-64
2021/06/11 04:41:30;;;;;;;5.85;5.35;;;;;;;21.99;65.17;99280.05;1807443;78;21002;-64
2021/06/11 04:43:57;;;;;;;6.53;5.35;;;;;;;22.01;65.07;99283.31;1791202;80;21012;-65
2021/06/11 04:46:24;;;;;;;5.62;5.00;;;;;;;22.03;65.06;99283.87;1791788;80;21215;-65
2021/06/11 04:48:50;;;;;;;7.58;5.42;;;;;;;22.05;65.00;99278.21;1801591;79;20986;-64
2021/06/11 04:51:17;;;;;;;5.97;5.20;;;;;;;22.08;64.99;99286.63;1795945;78;21027;-65
2021/06/11 04:53:43;;;;;;;6.03;5.53;;;;;;;22.09;64.94;99284.20;1815073;78;21487;-64
2021/06/11 04:56:10;;;;;;;7.00;6.30;;;;;;;22.10;64.88;99280.44;1814729;78;21069;-65
2021/06/11 04:58:40;;;;;;;7.75;5.97;;;;;;;22.11;64.90;99285.30;1778436;78;21639;-67
2021/06/11 05:01:08;;;;;;;5.87;5.37;;;;;;;22.12;64.94;99285.59;1792725;78;21021;-65
2021/06/11 05:03:34;;;;;;;6.83;6.22;;;;;;;22.13;64.95;99285.31;1818514;78;20989;-64
2021/06/11 05:06:02;;;;;;;6.20;5.70;;;;;;;22.15;64.97;99287.77;1795903;78;21050;-65
2021/06/11 05:08:29;;;;;;;5.75;5.25;;;;;;;22.17;64.95;99282.41;1779241;80;21068;-66
2021/06/11 05:10:55;;;;;;;6.20;5.50;;;;;;;22.20;64.98;99282.42;1807199;78;21125;-65
2021/06/11 05:13:22;;;;;;;7.85;5.60;;;;;;;22.23;64.96;99285.95;1775362;79;21030;-65
2021/06/11 05:15:49;;;;;;;5.83;5.33;;;;;;;22.26;64.94;99278.72;1792069;78;21504;-65
2021/06/11 05:18:16;;;;;;;6.60;6.00;;;;;;;22.28;64.87;99280.62;1785122;79;21051;-64
2021/06/11 05:20:42;;;;;;;6.62;5.95;;;;;;;22.30;64.82;99280.38;1812566;78;21143;-64
2021/06/11 05:23:08;;;;;;;8.68;5.50;;;;;;;22.34;64.79;99281.49;1788822;80;21144;-66
2021/06/11 05:25:36;;;;;;;11.33;6.03;;;;;;;22.36;64.78;99282.05;1784168;79;21101;-66
2021/06/11 05:28:03;;;;;;;6.20;5.53;;;;;;;22.36;64.75;99281.52;1803317;78;21286;-64
2021/06/11 05:30:31;;;;;;;5.87;4.90;;;;;;;22.38;64.78;99288.02;1778066;80;21064;-65
2021/06/11 05:32:58;;;;;;;6.20;5.60;;;;;;;22.42;64.73;99288.33;1795465;78;21059;-65
2021/06/11 05:35:25;;;;;;;5.80;5.30;;;;;;;22.42;64.70;99286.44;1800567;78;21803;-66
2021/06/11 05:37:52;;;;;;;6.58;5.87;;;;;;;22.45;64.61;99287.83;1770188;80;21051;-64
2021/06/11 05:40:19;;;;;;;6.95;5.40;;;;;;;22.46;64.58;99286.20;1775463;80;21521;-64
2021/06/11 05:42:47;;;;;;;6.75;5.33;;;;;;;22.49;64.50;99291.11;1801840;78;21025;-65
2021/06/11 05:45:14;;;;;;;5.22;4.83;;;;;;;22.51;64.38;99297.63;1784942;79;21010;-66
2021/06/11 05:47:40;;;;;;;6.30;5.50;;;;;;;22.53;64.29;99298.17;1819436;78;22161;-64
2021/06/11 05:50:08;;;;;;;5.70;5.25;;;;;;;22.56;64.25;99301.19;1769181;78;21072;-64
2021/06/11 05:52:36;;;;;;;5.65;5.20;;;;;;;22.58;64.16;99302.30;1776536;79;21074;-64
2021/06/11 05:55:07;;;;;;;5.95;5.22;;;;;;;22.60;64.06;99303.36;1769277;80;21520;-66
2021/06/11 05:57:34;;;;;;;9.73;6.83;;;;;;;22.61;64.20;99301.76;1780765;80;21040;-65
2021/06/11 06:00:02;;;;;;;7.62;6.78;;;;;;;22.65;64.39;99303.42;1772760;78;22313;-64
2021/06/11 06:02:30;;;;;;;7.42;6.17;;;;;;;22.70;64.42;99299.41;1801999;78;20971;-64
2021/06/11 06:04:57;;;;;;;5.40;5.00;;;;;;;22.76;64.42;99303.78;1805550;78;21181;-65
2021/06/11 06:07:23;;;;;;;5.87;4.97;;;;;;;22.82;64.65;99305.99;1783807;78;21049;-64
2021/06/11 06:09:50;;;;;;;5.25;4.75;;;;;;;22.87;65.29;99301.95;1815661;78;20994;-65
2021/06/11 06:12:16;;;;;;;4.83;4.35;;;;;;;22.99;65.15;99305.30;1781102;78;21067;-64
2021/06/11 06:15:48;;;;;;;5.55;4.53;;;;;;;23.22;64.57;99302.77;1859795;75;22432;-64
2021/06/11 06:18:14;;;;;;;6.67;4.80;;;;;;;23.23;64.23;99307.65;1826704;78;21037;-65
2021/06/11 06:20:44;;;;;;;7.92;5.97;;;;;;;23.30;63.96;99306.88;1814835;77;21182;-65
2021/06/11 06:23:10;;;;;;;12.90;5.37;;;;;;;23.35;63.79;99310.95;1826102;77;21001;-67
2021/06/11 06:25:37;;;;;;;7.30;5.15;;;;;;;23.43;63.65;99320.48;1821910;77;21029;-65
2021/06/11 06:28:04;;;;;;;6.55;5.85;;;;;;;23.50;63.31;99312.94;1822571;77;21072;-64
2021/06/11 06:30:32;;;;;;;5.90;4.90;;;;;;;23.55;62.72;99309.72;1771019;78;20981;-64
2021/06/11 06:32:59;;;;;;;5.05;4.60;;;;;;;23.60;62.41;99309.46;1819619;77;21142;-64
2021/06/11 06:35:25;;;;;;;4.65;4.25;;;;;;;23.66;62.02;99314.66;1838273;77;20983;-64
2021/06/11 06:37:52;;;;;;;4.72;3.95;;;;;;;23.72;61.62;99316.82;1814469;77;21460;-63
2021/06/11 06:40:18;;;;;;;4.45;4.00;;;;;;;23.77;61.07;99322.83;1827177;77;20986;-63
2021/06/11 06:42:45;;;;;;;4.85;4.12;;;;;;;23.81;60.86;99322.05;1811155;78;21005;-63
2021/06/11 06:45:14;;;;;;;4.17;3.87;;;;;;;23.85;60.51;99321.78;1825824;77;21903;-63
2021/06/11 06:47:44;;;;;;;4.45;4.05;;;;;;;23.92;60.15;99314.77;1806991;77;21049;-64
2021/06/11 06:50:17;;;;;;;4.78;3.98;;;;;;;23.94;60.08;99312.06;1811571;78;21021;-62
2021/06/11 06:52:44;;;;;;;7.72;4.45;;;;;;;23.99;59.73;99313.16;1804838;77;21154;-64
2021/06/11 06:55:11;;;;;;;4.67;4.28;;;;;;;24.00;59.45;99314.80;1804798;78;21489;-64
2021/06/11 06:57:38;;;;;;;4.20;3.90;;;;;;;24.01;59.54;99308.27;1808192;77;21142;-63
2021/06/11 07:00:07;;;;;;;4.15;3.75;;;;;;;24.03;59.08;99312.89;1816755;77;20986;-64
2021/06/11 07:02:35;;;;;;;4.53;4.03;;;;;;;24.04;59.02;99308.56;1813172;77;20979;-64
2021/06/11 07:05:01;;;;;;;4.28;3.72;;;;;;;24.08;59.04;99311.55;1816921;77;21052;-64
2021/06/11 07:07:28;;;;;;;4.17;3.62;;;;;;;24.11;59.19;99316.46;1817742;77;21497;-63
2021/06/11 07:09:54;;;;;;;4.65;4.25;;;;;;;24.15;58.96;99312.12;1821431;77;22294;-65
2021/06/11 07:12:21;;;;;;;7.70;6.15;;;;;;;24.20;58.97;99320.25;1818207;77;21079;-64
2021/06/11 07:14:48;;;;;;;6.85;4.70;;;;;;;24.24;58.93;99316.47;1824259;77;21126;-64
2021/06/11 07:17:15;;;;;;;4.65;4.25;;;;;;;24.27;58.36;99314.59;1844223;77;21540;-63
2021/06/11 07:19:42;;;;;;;6.00;4.17;;;;;;;24.30;57.98;99313.51;1820137;77;20962;-63
2021/06/11 07:22:08;;;;;;;5.42;4.28;;;;;;;24.33;57.74;99316.22;1799122;78;21107;-65
2021/06/11 07:24:37;;;;;;;4.58;3.85;;;;;;;24.36;57.65;99322.48;1827807;77;21014;-63
2021/06/11 07:27:05;;;;;;;4.22;3.72;;;;;;;24.39;57.47;99315.69;1818652;78;20989;-64
2021/06/11 07:29:33;;;;;;;4.55;4.15;;;;;;;24.41;57.40;99321.11;1844017;77;21033;-63
2021/06/11 07:31:59;;;;;;;4.12;3.35;;;;;;;24.44;57.26;99315.16;1814915;77;21049;-65
2021/06/11 07:34:26;;;;;;;5.10;3.30;;;;;;;24.47;56.90;99318.70;1821337;77;21163;-64
2021/06/11 07:36:52;;;;;;;5.12;3.40;;;;;;;24.49;56.49;99317.05;1819437;77;21054;-64
2021/06/11 07:39:19;;;;;;;5.20;4.17;;;;;;;24.52;56.96;99319.27;1824924;77;21022;-64
2021/06/11 07:41:46;;;;;;;3.80;3.50;;;;;;;24.56;56.63;99323.06;1818122;77;21013;-65
2021/06/11 07:44:13;;;;;;;4.17;3.75;;;;;;;24.59;56.51;99320.34;1817156;77;21041;-64
2021/06/11 07:46:40;;;;;;;6.30;3.85;;;;;;;24.62;56.35;99311.11;1814795;77;21128;-64
2021/06/11 07:49:06;;;;;;;4.33;3.92;;;;;;;24.65;56.04;99311.94;1811617;77;21013;-63
2021/06/11 07:51:32;;;;;;;4.08;3.77;;;;;;;24.67;55.71;99317.91;1819888;77;21469;-63
2021/06/11 07:53:59;;;;;;;5.58;4.80;;;;;;;24.71;55.80;99319.55;1824367;77;21112;-64
2021/06/11 07:56:25;;;;;;;4.70;4.20;;;;;;;24.59;55.88;99289.11;1807688;77;21044;-63
2021/06/11 07:58:52;;;;;;;4.42;4.03;;;;;;;24.80;55.56;99319.80;1813762;77;21132;-64
2021/06/11 08:01:18;;;;;;;6.78;4.20;;;;;;;24.83;55.76;99314.64;1806901;77;20978;-65
2021/06/11 08:03:45;;;;;;;4.67;4.28;;;;;;;24.86;55.18;99320.06;1810665;77;21077;-64
2021/06/11 08:06:11;;;;;;;4.47;4.08;;;;;;;24.88;55.37;99329.59;1817511;77;21014;-64
2021/06/11 08:08:38;;;;;;;4.47;4.08;;;;;;;24.91;55.23;99318.72;1816723;77;21084;-63
2021/06/11 08:11:04;;;;;;;7.80;4.30;;;;;;;24.93;54.77;99321.42;1807759;77;21757;-63
2021/06/11 08:13:31;;;;;;;4.53;4.10;;;;;;;24.96;54.08;99330.14;1821498;77;20983;-64
2021/06/11 08:15:57;;;;;;;4.62;3.70;;;;;;;24.98;53.93;99326.05;1814965;77;21069;-64
2021/06/11 08:18:26;;;;;;;4.20;3.80;;;;;;;24.98;53.84;99330.13;1811794;77;21056;-63
2021/06/11 08:20:52;;;;;;;5.17;3.37;;;;;;;25.01;53.94;99328.20;1800410;77;21041;-63
2021/06/11 08:23:18;;;;;;;6.55;3.87;;;;;;;25.05;53.79;99332.55;1793939;77;21514;-63
2021/06/11 08:25:45;;;;;;;4.08;3.70;;;;;;;25.08;53.70;99329.30;1810114;77;21354;-64
2021/06/11 08:28:11;;;;;;;4.95;3.87;;;;;;;25.09;53.71;99334.47;1830362;77;21022;-64
2021/06/11 08:30:38;;;;;;;3.90;3.60;;;;;;;25.12;53.74;99332.55;1812760;77;21038;-65
2021/06/11 08:33:06;;;;;;;5.08;4.10;;;;;;;25.16;53.55;99327.38;1807609;79;21006;-67
2021/06/11 08:35:33;;;;;;;4.50;4.10;;;;;;;25.19;53.21;99325.48;1803180;78;21151;-64
2021/06/11 08:38:00;;;;;;;4.00;3.60;;;;;;;25.20;52.66;99318.94;1812210;78;21158;-69
2021/06/11 08:40:27;;;;;;;4.33;3.92;;;;;;;25.19;52.40;99331.44;1813046;77;21070;-69
2021/06/11 08:42:53;;;;;;;4.37;4.08;;;;;;;25.18;52.49;99325.20;1809447;77;21471;-70
2021/06/11 08:45:20;;;;;;;5.45;4.87;;;;;;;25.22;52.56;99322.23;1825843;77;21496;-70
2021/06/11 08:47:49;;;;;;;5.08;4.60;;;;;;;25.25;52.68;99323.05;1803131;77;21167;-71
2021/06/11 08:50:21;;;;;;;5.05;4.17;;;;;;;25.30;52.62;99327.12;1809678;77;21070;-64
2021/06/11 08:52:47;;;;;;;8.28;4.03;;;;;;;25.37;52.36;99328.18;1795644;77;21033;-64
2021/06/11 08:55:15;;;;;;;4.87;4.47;;;;;;;25.42;52.40;99319.19;1832612;77;21068;-63
2021/06/11 08:57:42;;;;;;;3.85;3.55;;;;;;;25.47;52.35;99322.70;1802766;77;21041;-63
2021/06/11 09:00:10;;;;;;;3.95;3.42;;;;;;;25.53;51.62;99319.42;1811382;77;21146;-65
2021/06/11 09:03:21;;;;;;;4.53;3.30;;;;;;;25.58;51.39;99319.42;1798378;77;21108;-63
2021/06/11 09:06:12;;;;;;;4.00;3.60;;;;;;;25.62;51.48;99321.04;1806128;77;21085;-63
2021/06/11 09:08:35;;;;;;;4.40;4.03;;;;;;;25.64;50.65;99312.86;1810196;77;21585;-64
2021/06/11 09:11:25;;;;;;;3.27;2.98;;;;;;;25.66;50.19;99308.51;1803578;77;21026;-63
2021/06/11 09:14:05;;;;;;;3.70;3.17;;;;;;;25.68;49.81;99312.57;1803012;77;21102;-64
2021/06/11 09:16:46;;;;;;;4.42;3.20;;;;;;;25.71;49.58;99307.14;1807453;77;21026;-64
2021/06/11 09:19:18;;;;;;;3.87;3.33;;;;;;;25.72;48.71;99312.02;1803971;77;21026;-65
2021/06/11 09:21:46;;;;;;;3.98;2.98;;;;;;;25.75;49.60;99308.20;1811275;77;21042;-64
2021/06/11 09:24:25;;;;;;;3.40;3.15;;;;;;;25.79;49.18;99307.91;1807031;77;20990;-65
2021/06/11 09:27:04;;;;;;;3.90;3.33;;;;;;;25.83;48.32;99302.73;1800071;78;21167;-65
2021/06/11 09:29:38;;;;;;;5.35;3.55;;;;;;;25.88;48.72;99304.05;1813180;77;21344;-64
2021/06/11 09:32:21;;;;;;;8.78;6.97;;;;;;;25.90;48.29;99308.13;1801288;77;20999;-64
2021/06/11 09:34:56;;;;;;;6.17;5.58;;;;;;;25.94;48.87;99298.90;1798412;77;21038;-63
2021/06/11 09:37:27;;;;;;;5.15;4.65;;;;;;;26.00;48.52;99291.48;1796832;77;21554;-67
2021/06/11 09:40:11;;;;;;;5.83;3.92;;;;;;;26.06;48.28;99297.19;1790698;77;21080;-65
2021/06/11 09:42:48;;;;;;;4.37;4.00;;;;;;;26.12;48.34;99294.70;1822428;77;21013;-64
2021/06/11 09:45:15;;;;;;;4.70;3.83;;;;;;;26.18;48.61;99292.20;1790416;77;21112;-65
2021/06/11 09:47:48;;;;;;;6.60;3.75;;;;;;;26.26;48.98;99293.52;1804450;77;21556;-65
2021/06/11 09:50:18;;;;;;;4.50;3.95;;;;;;;26.32;48.86;99288.30;1784469;77;21030;-65
2021/06/11 09:53:00;;;;;;;3.70;3.37;;;;;;;26.40;48.44;99287.69;1798231;77;21131;-65
2021/06/11 09:55:46;;;;;;;4.37;3.60;;;;;;;26.48;48.15;99291.71;1786897;77;21057;-65
2021/06/11 09:58:30;;;;;;;3.45;3.15;;;;;;;26.56;48.23;99291.65;1809615;77;21107;-64
2021/06/11 10:01:11;;;;;;;3.60;3.30;;;;;;;26.63;46.50;99290.81;1810938;77;21077;-64
2021/06/11 10:03:41;;;;;;;3.83;3.47;;;;;;;26.70;46.53;99280.97;1809515;77;21014;-64
2021/06/11 10:06:09;;;;;;;3.85;3.55;;;;;;;26.76;45.68;99266.20;1809418;77;21096;-65
2021/06/11 10:08:42;;;;;;;4.12;3.72;;;;;;;26.78;45.48;99289.88;1778417;78;21033;-66
2021/06/11 10:11:11;;;;;;;5.25;3.37;;;;;;;26.84;45.46;99290.09;1801639;77;21030;-65
2021/06/11 10:16:19;;;;;;;4.83;3.90;;;;;;;26.96;45.25;99285.61;1768134;79;22031;-66
2021/06/11 10:18:47;;;;;;;4.17;3.10;;;;;;;27.02;44.97;99287.18;1762828;80;21009;-65
2021/06/11 10:21:14;;;;;;;3.90;3.60;;;;;;;27.06;45.08;99298.60;1731250;81;21129;-67
2021/06/11 10:23:41;;;;;;;4.20;3.47;;;;;;;27.14;45.00;99297.16;1802611;79;20927;-65
2021/06/11 10:26:09;;;;;;;4.72;3.30;;;;;;;27.23;44.99;99295.41;1778651;79;21467;-66
2021/06/11 10:28:44;;;;;;;3.90;3.12;;;;;;;27.34;44.72;99295.34;1783782;79;21058;-66
2021/06/11 10:31:14;;;;;;;4.10;3.75;;;;;;;27.42;44.63;99291.41;1806213;79;21061;-66
2021/06/11 10:33:49;;;;;;;4.78;3.72;;;;;;;27.54;44.47;99290.99;1797918;78;21526;-65
2021/06/11 10:36:40;;;;;;;4.40;3.55;;;;;;;27.64;44.61;99292.78;1782415;79;20974;-66
2021/06/11 10:39:16;;;;;;;6.35;5.67;;;;;;;27.74;44.25;99285.02;1738923;81;21029;-65
2021/06/11 10:42:08;;;;;;;3.62;3.33;;;;;;;27.84;44.44;99290.36;1749289;79;21100;-66
2021/06/11 10:44:50;;;;;;;6.90;3.92;;;;;;;27.95;44.15;99289.15;1766897;79;21056;-66
2021/06/11 10:47:22;;;;;;;3.80;3.20;;;;;;;28.08;44.10;99290.88;1749240;81;21211;-65
2021/06/11 10:50:04;;;;;;;4.55;3.50;;;;;;;28.19;43.79;99288.26;1763938;81;21029;-65
2021/06/11 10:52:37;;;;;;;4.80;3.37;;;;;;;28.29;43.50;99282.63;1799003;79;21014;-64
2021/06/11 10:55:25;;;;;;;4.20;3.60;;;;;;;28.38;43.49;99293.71;1792041;79;21577;-65
2021/06/11 10:57:58;;;;;;;3.85;3.55;;;;;;;28.46;43.41;99288.12;1785220;79;21397;-65
2021/06/11 11:00:36;;;;;;;4.20;3.35;;;;;;;28.57;43.31;99288.25;1791599;79;21131;-66
2021/06/11 11:03:06;;;;;;;4.30;3.27;;;;;;;28.66;42.75;99285.07;1791109;79;21572;-66
2021/06/11 11:05:38;;;;;;;3.40;3.00;;;;;;;28.77;42.56;99281.62;1784019;79;21237;-64
2021/06/11 11:08:06;;;;;;;3.10;2.90;;;;;;;28.86;42.22;99277.63;1805744;79;21116;-64
2021/06/11 11:10:47;;;;;;;5.25;3.35;;;;;;;28.93;41.88;99278.05;1780523;79;21025;-64
2021/06/11 11:13:28;;;;;;;3.45;3.15;;;;;;;29.00;41.76;99277.11;1786777;79;21086;-65
2021/06/11 11:15:57;;;;;;;3.35;3.05;;;;;;;29.09;41.69;99274.47;1761895;79;21061;-70
2021/06/11 11:18:38;;;;;;;3.33;3.05;;;;;;;29.16;40.93;99270.25;1704996;83;21041;-63
2021/06/11 11:21:35;;;;;;;3.33;2.85;;;;;;;29.24;41.08;99262.46;1742878;80;21095;-65
2021/06/11 11:24:10;;;;;;;2.80;2.60;;;;;;;29.33;40.81;99267.48;1722227;81;21628;-64
2021/06/11 11:26:49;;;;;;;3.25;2.87;;;;;;;29.39;40.61;99273.91;1753890;80;21833;-64
2021/06/11 11:29:18;;;;;;;4.78;2.95;;;;;;;29.50;40.73;99269.61;1722356;81;21064;-64
2021/06/11 11:31:46;;;;;;;3.58;3.02;;;;;;;29.61;40.30;99266.89;1753695;80;21099;-64
2021/06/11 11:34:13;;;;;;;3.00;2.70;;;;;;;29.71;40.22;99268.59;1713719;83;21062;-65
2021/06/11 11:36:39;;;;;;;3.35;2.92;;;;;;;29.82;39.96;99269.23;1748603;81;21005;-63
2021/06/11 11:39:10;;;;;;;3.10;2.80;;;;;;;29.92;39.77;99258.03;1715869;83;21831;-64
2021/06/11 11:41:37;;;;;;;2.80;2.50;;;;;;;30.01;39.57;99257.56;1753578;80;21065;-69
2021/06/11 11:44:05;;;;;;;3.40;3.10;;;;;;;30.12;39.32;99247.99;1715622;83;21518;-71
2021/06/11 11:46:31;;;;;;;2.72;2.52;;;;;;;30.22;39.05;99253.78;1733129;81;21092;-69
2021/06/11 11:48:58;;;;;;;4.72;2.70;;;;;;;30.32;38.90;99258.23;1733331;81;21126;-70
2021/06/11 11:51:26;;;;;;;2.92;2.65;;;;;;;30.42;38.86;99259.92;1731573;80;21817;-70